Time;durP1;ratioP1;P1;durP2;ratioP2;P2;SDS_P1;SDS_P2;PMS_P1;PMS_P2;Temp;Humidity;BMP_temperature;BMP_pressure;BME280_temperature;BME280_humidity;BME280_pressure;Samples;Min_cycle;Max_cycle;Signal;HPM_P1;HPM_P2
2022/05/14 00:01:08;;;;;;;;;0.00;0.00;22.00;99.90;;;;;;4987735;28;8826;-64
2022/05/14 00:03:41;;;;;;;;;0.00;0.00;21.90;99.90;;;;;;5001438;28;8834;-63
2022/05/14 00:06:14;;;;;;;;;0.00;0.00;21.90;99.90;;;;;;4984234;28;8878;-63
2022/05/14 00:08:46;;;;;;;;;0.00;0.00;21.90;99.90;;;;;;4997114;28;8945;-63
2022/05/14 00:14:09;;;;;;;;;0.00;0.00;21.90;99.90;;;;;;5000305;28;8863;-64
2022/05/14 00:16:43;;;;;;;;;0.00;0.00;21.90;99.90;;;;;;4998681;28;8859;-64
2022/05/14 00:19:14;;;;;;;;;0.00;0.00;21.90;99.90;;;;;;4998408;28;8828;-64
2022/05/14 00:21:45;;;;;;;;;0.00;0.00;21.90;99.90;;;;;;4995044;28;8833;-65
2022/05/14 00:24:22;;;;;;;;;0.00;0.00;21.90;99.90;;;;;;4995795;28;8874;-63
2022/05/14 00:26:52;;;;;;;;;0.00;0.00;22.00;99.90;;;;;;4993455;28;8867;-64
2022/05/14 00:29:41;;;;;;;;;1.00;0.00;21.90;99.90;;;;;;4995979;28;9495;-64
2022/05/14 00:32:19;;;;;;;;;0.00;0.00;22.00;99.90;;;;;;4980670;28;8868;-62
2022/05/14 00:34:50;;;;;;;;;0.75;0.00;22.00;99.90;;;;;;4998207;28;8867;-63
2022/05/14 00:37:21;;;;;;;;;0.00;0.00;22.00;99.90;;;;;;4996353;28;8843;-64
2022/05/14 00:39:53;;;;;;;;;0.00;0.00;21.80;99.90;;;;;;4999025;28;8883;-64
2022/05/14 00:42:23;;;;;;;;;0.00;0.00;21.70;99.90;;;;;;4992407;28;8840;-63
2022/05/14 00:44:53;;;;;;;;;0.00;0.00;21.70;99.90;;;;;;4964648;28;8840;-63
2022/05/14 00:47:26;;;;;;;;;0.00;0.00;21.60;99.90;;;;;;4995509;28;9950;-64
2022/05/14 00:50:05;;;;;;;;;0.00;0.00;21.50;99.90;;;;;;4996926;28;8867;-64
2022/05/14 00:52:40;;;;;;;;;0.00;0.00;21.40;99.90;;;;;;4994537;28;8840;-63
2022/05/14 00:55:12;;;;;;;;;0.00;0.00;21.40;99.90;;;;;;4996448;28;8831;-64
2022/05/14 00:57:47;;;;;;;;;0.00;0.00;21.40;99.90;;;;;;4996350;28;8850;-64
2022/05/14 01:00:21;;;;;;;;;0.00;0.00;21.40;99.90;;;;;;4992457;28;8836;-64
2022/05/14 01:02:53;;;;;;;;;0.00;0.00;21.30;99.90;;;;;;4998361;28;8896;-64
2022/05/14 01:05:26;;;;;;;;;0.00;0.00;21.30;99.90;;;;;;4988622;28;8871;-64
2022/05/14 01:07:56;;;;;;;;;0.00;0.00;21.20;99.90;;;;;;4987630;28;8876;-65
2022/05/14 01:10:37;;;;;;;;;0.00;0.00;21.20;99.90;;;;;;4982042;28;8833;-67
2022/05/14 01:13:13;;;;;;;;;0.00;0.00;21.20;99.90;;;;;;5004320;28;9551;-67
2022/05/14 01:15:56;;;;;;;;;0.00;0.00;21.10;99.90;;;;;;4995210;28;8875;-67
2022/05/14 01:18:33;;;;;;;;;0.00;0.00;21.00;99.90;;;;;;4982780;28;9592;-66
2022/05/14 01:21:36;;;;;;;;;0.00;0.00;21.00;99.90;;;;;;5002446;28;9052;-67
2022/05/14 01:27:41;;;;;;;;;0.00;0.00;21.00;99.90;;;;;;4982228;28;8883;-67
2022/05/14 01:30:12;;;;;;;;;0.00;0.00;20.90;99.90;;;;;;4997773;28;8850;-66
2022/05/14 01:33:04;;;;;;;;;0.00;0.00;20.80;99.90;;;;;;4996823;28;8812;-67
2022/05/14 01:35:55;;;;;;;;;0.00;0.00;20.90;99.90;;;;;;4994977;28;8844;-66
2022/05/14 01:38:26;;;;;;;;;0.00;0.00;20.80;99.90;;;;;;4998592;28;8996;-65
2022/05/14 01:40:58;;;;;;;;;0.00;0.00;20.80;99.90;;;;;;4977331;28;9889;-66
2022/05/14 01:43:32;;;;;;;;;0.00;0.00;20.80;99.90;;;;;;4991638;28;8922;-65
2022/05/14 01:46:04;;;;;;;;;0.00;0.00;20.80;99.90;;;;;;4990130;28;8947;-65
2022/05/14 01:48:34;;;;;;;;;0.50;0.00;20.80;99.90;;;;;;4992911;28;9005;-68
2022/05/14 01:51:07;;;;;;;;;0.00;0.00;20.60;99.90;;;;;;4991600;28;8828;-65
2022/05/14 01:53:38;;;;;;;;;0.00;0.00;20.60;99.90;;;;;;4993139;28;8930;-66
2022/05/14 01:56:09;;;;;;;;;1.00;1.00;20.70;99.90;;;;;;4996134;28;8856;-66
2022/05/14 01:58:41;;;;;;;;;1.00;1.00;20.70;99.90;;;;;;4978532;28;9054;-66
2022/05/14 02:01:26;;;;;;;;;0.00;0.00;20.60;99.90;;;;;;4991191;28;8973;-65
2022/05/14 02:04:04;;;;;;;;;0.00;0.00;20.60;99.90;;;;;;4986810;28;8860;-67
2022/05/14 02:06:37;;;;;;;;;1.00;1.00;20.60;99.90;;;;;;4977479;28;8889;-66
2022/05/14 02:09:12;;;;;;;;;0.00;0.00;20.60;99.90;;;;;;4974212;28;8876;-66
2022/05/14 02:11:51;;;;;;;;;0.00;0.00;20.50;99.90;;;;;;4975680;28;8852;-68
2022/05/14 02:14:34;;;;;;;;;1.00;0.00;20.50;99.90;;;;;;4978165;28;8876;-67
2022/05/14 02:17:06;;;;;;;;;0.33;0.00;20.50;99.90;;;;;;4994096;28;8882;-68
2022/05/14 02:19:37;;;;;;;;;0.00;0.00;20.50;99.90;;;;;;4981592;28;9100;-69
2022/05/14 02:22:08;;;;;;;;;1.00;1.00;20.40;99.90;;;;;;4996451;28;8975;-67
2022/05/14 02:24:39;;;;;;;;;0.00;0.00;20.30;99.90;;;;;;4966409;28;9209;-68
2022/05/14 02:27:11;;;;;;;;;2.00;2.00;20.30;99.90;;;;;;4988271;28;8890;-66
2022/05/14 02:29:50;;;;;;;;;0.00;0.00;20.30;99.90;;;;;;4976945;28;9254;-67
2022/05/14 02:32:26;;;;;;;;;0.00;0.00;20.30;99.90;;;;;;4993218;28;9175;-67
2022/05/14 02:35:01;;;;;;;;;0.00;0.00;20.30;99.90;;;;;;4995545;28;8955;-66
2022/05/14 02:37:35;;;;;;;;;0.00;0.00;20.20;99.90;;;;;;4998812;28;9020;-67
2022/05/14 02:40:06;;;;;;;;;0.33;0.33;20.10;99.90;;;;;;5001545;28;9143;-68
2022/05/14 02:42:39;;;;;;;;;1.00;1.00;20.10;99.90;;;;;;4995054;28;9111;-67
2022/05/14 02:45:22;;;;;;;;;1.00;1.00;20.00;99.90;;;;;;5000992;28;9032;-66
2022/05/14 02:47:55;;;;;;;;;2.33;1.00;19.90;99.90;;;;;;4969020;28;9035;-67
2022/05/14 02:50:27;;;;;;;;;0.00;0.00;19.90;99.90;;;;;;5000113;28;8988;-68
2022/05/14 02:52:59;;;;;;;;;0.33;0.33;19.80;99.90;;;;;;5000598;28;9004;-68
2022/05/14 02:55:34;;;;;;;;;1.00;1.00;19.70;99.90;;;;;;4977041;28;9291;-69
2022/05/14 02:58:07;;;;;;;;;1.00;1.00;19.70;99.90;;;;;;5000023;28;9087;-69
2022/05/14 03:00:38;;;;;;;;;2.00;0.00;19.70;99.90;;;;;;5000919;28;9946;-68
2022/05/14 03:03:09;;;;;;;;;0.67;0.67;19.70;99.90;;;;;;4990163;28;10371;-70
2022/05/14 03:05:40;;;;;;;;;0.33;0.33;19.70;99.90;;;;;;4998960;28;9245;-71
2022/05/14 03:08:12;;;;;;;;;0.33;0.33;19.60;99.90;;;;;;4979192;28;9207;-68
2022/05/14 03:10:44;;;;;;;;;1.00;1.00;19.60;99.90;;;;;;4980827;28;9409;-69
2022/05/14 03:13:14;;;;;;;;;0.00;0.00;19.60;99.90;;;;;;4995295;28;9446;-67
2022/05/14 03:15:45;;;;;;;;;1.00;1.00;19.60;99.90;;;;;;4978872;28;9419;-67
2022/05/14 03:18:16;;;;;;;;;1.00;1.00;19.60;99.90;;;;;;4981555;28;9581;-67
2022/05/14 03:20:50;;;;;;;;;0.00;0.00;19.50;99.90;;;;;;4992036;28;9448;-68
2022/05/14 03:23:25;;;;;;;;;0.67;0.67;19.50;99.90;;;;;;4977616;28;9340;-68
2022/05/14 03:25:57;;;;;;;;;0.33;0.33;19.30;99.90;;;;;;4992161;28;9329;-69
2022/05/14 03:28:28;;;;;;;;;0.00;0.00;19.40;99.90;;;;;;4982876;28;9361;-63
2022/05/14 03:31:00;;;;;;;;;0.33;0.33;19.40;99.90;;;;;;4975160;28;9422;-65
2022/05/14 03:33:38;;;;;;;;;0.00;0.00;19.30;99.90;;;;;;4981946;28;9277;-65
2022/05/14 03:36:10;;;;;;;;;0.00;0.00;19.30;99.90;;;;;;4977283;28;9233;-65
2022/05/14 03:38:43;;;;;;;;;0.00;0.00;19.20;99.90;;;;;;4976246;28;9472;-64
2022/05/14 03:41:17;;;;;;;;;0.00;0.00;19.20;99.90;;;;;;4990129;28;9415;-65
2022/05/14 03:43:49;;;;;;;;;1.00;1.00;19.20;99.90;;;;;;4970996;28;9557;-65
2022/05/14 03:46:19;;;;;;;;;0.00;0.00;19.10;99.90;;;;;;4974387;28;10654;-66
2022/05/14 03:48:55;;;;;;;;;0.00;0.00;19.10;99.90;;;;;;4976532;28;10192;-66
2022/05/14 03:51:31;;;;;;;;;0.00;0.00;19.10;99.90;;;;;;4976627;28;9721;-66
2022/05/14 03:54:05;;;;;;;;;1.00;0.67;19.00;99.90;;;;;;4981661;28;9547;-67
2022/05/14 03:56:39;;;;;;;;;0.00;0.00;19.00;99.90;;;;;;4974130;28;9519;-65
2022/05/14 03:59:12;;;;;;;;;0.00;0.00;19.00;99.90;;;;;;4978489;28;9567;-67
2022/05/14 04:01:45;;;;;;;;;0.50;0.50;18.90;99.90;;;;;;4972618;28;9618;-67
2022/05/14 04:04:19;;;;;;;;;1.00;0.00;18.90;99.90;;;;;;4973388;28;9772;-66
2022/05/14 04:06:52;;;;;;;;;0.00;0.00;18.90;99.90;;;;;;4967321;28;9695;-66
2022/05/14 04:09:25;;;;;;;;;0.00;0.00;18.80;99.90;;;;;;4972650;28;9653;-66
2022/05/14 04:11:56;;;;;;;;;0.00;0.00;18.80;99.90;;;;;;4987313;28;9473;-68
2022/05/14 04:14:28;;;;;;;;;0.00;0.00;18.70;99.90;;;;;;4995278;28;9756;-66
2022/05/14 04:17:00;;;;;;;;;0.00;0.00;18.70;99.90;;;;;;4977484;28;9748;-65
2022/05/14 04:19:34;;;;;;;;;0.00;0.00;18.70;99.90;;;;;;4988030;28;10516;-65
2022/05/14 04:22:05;;;;;;;;;0.75;0.75;18.70;99.90;;;;;;4977752;28;9878;-66
2022/05/14 04:24:37;;;;;;;;;0.00;0.00;18.60;99.90;;;;;;4993294;28;9634;-66
2022/05/14 04:27:08;;;;;;;;;0.75;0.75;18.60;99.90;;;;;;4974750;28;9777;-65
2022/05/14 04:29:53;;;;;;;;;0.00;0.00;18.60;99.90;;;;;;4992066;28;10042;-65
2022/05/14 04:32:24;;;;;;;;;0.00;0.00;18.50;99.90;;;;;;4992035;28;10200;-67
2022/05/14 04:34:59;;;;;;;;;3.50;0.00;18.50;99.90;;;;;;4975550;28;10714;-67
2022/05/14 04:37:35;;;;;;;;;0.00;0.00;18.50;99.90;;;;;;4998021;28;9789;-66
2022/05/14 04:40:07;;;;;;;;;0.00;0.00;18.50;99.90;;;;;;4993274;28;9984;-65
2022/05/14 04:42:40;;;;;;;;;1.00;1.00;18.40;99.90;;;;;;4984602;28;9776;-65
2022/05/14 04:45:13;;;;;;;;;0.00;0.00;18.40;99.90;;;;;;4975189;28;10239;-65
2022/05/14 04:47:44;;;;;;;;;0.00;0.00;18.40;99.90;;;;;;4962827;28;10899;-66
2022/05/14 04:50:19;;;;;;;;;0.00;0.00;18.40;99.90;;;;;;4990776;28;10303;-63
2022/05/14 04:52:51;;;;;;;;;0.00;0.00;18.40;99.90;;;;;;4982958;28;10152;-64
2022/05/14 04:55:22;;;;;;;;;0.50;0.50;18.40;99.90;;;;;;4985174;28;10101;-65
2022/05/14 04:57:55;;;;;;;;;0.50;0.50;18.30;99.90;;;;;;4985698;28;10762;-65
2022/05/14 05:00:26;;;;;;;;;0.00;0.00;18.30;99.90;;;;;;4975885;28;10064;-66
2022/05/14 05:03:21;;;;;;;;;0.25;0.25;18.30;99.90;;;;;;4978007;28;10199;-65
2022/05/14 05:06:00;;;;;;;;;0.00;0.00;18.30;99.90;;;;;;4950045;28;10040;-65
2022/05/14 05:08:33;;;;;;;;;0.00;0.00;18.30;99.90;;;;;;4984447;28;10154;-66
2022/05/14 05:11:05;;;;;;;;;0.00;0.00;18.30;99.90;;;;;;4992922;28;9924;-63
2022/05/14 05:13:39;;;;;;;;;0.00;0.00;18.30;99.90;;;;;;4972900;28;10857;-65
2022/05/14 05:16:10;;;;;;;;;0.00;0.00;18.30;99.90;;;;;;4990968;28;9854;-64
2022/05/14 05:18:41;;;;;;;;;1.50;0.00;18.20;99.90;;;;;;4990934;28;9948;-65
2022/05/14 05:21:11;;;;;;;;;0.00;0.00;18.20;99.90;;;;;;4990329;28;9930;-64
2022/05/14 05:23:43;;;;;;;;;0.00;0.00;18.10;99.90;;;;;;4993061;28;9892;-64
2022/05/14 05:26:20;;;;;;;;;0.00;0.00;18.10;99.90;;;;;;4981199;28;9669;-64
2022/05/14 05:28:52;;;;;;;;;0.00;0.00;18.00;99.90;;;;;;4980334;28;9810;-65
2022/05/14 05:31:24;;;;;;;;;0.00;0.00;18.00;99.90;;;;;;4985930;28;9638;-65
2022/05/14 05:33:55;;;;;;;;;0.00;0.00;18.00;99.90;;;;;;4973896;28;9767;-64
2022/05/14 05:36:26;;;;;;;;;0.00;0.00;17.90;99.90;;;;;;4976394;28;10031;-64
2022/05/14 05:38:58;;;;;;;;;0.25;0.25;17.90;99.90;;;;;;4970445;28;10509;-63
2022/05/14 05:41:30;;;;;;;;;0.00;0.00;17.90;99.90;;;;;;4987988;28;10155;-65
2022/05/14 05:44:00;;;;;;;;;0.00;0.00;17.90;99.90;;;;;;4978743;28;9919;-65
2022/05/14 05:46:35;;;;;;;;;1.00;1.00;17.80;99.90;;;;;;4986282;28;10091;-65
2022/05/14 05:49:05;;;;;;;;;0.00;0.00;17.80;99.90;;;;;;4993069;28;10121;-65
2022/05/14 05:51:36;;;;;;;;;0.00;0.00;17.80;99.90;;;;;;4990150;28;10685;-65
2022/05/14 05:56:57;;;;;;;;;0.00;0.00;17.70;99.90;;;;;;4970969;28;10216;-65
2022/05/14 05:59:31;;;;;;;;;0.00;0.00;17.60;99.90;;;;;;4970882;28;10585;-64
2022/05/14 06:02:01;;;;;;;;;0.00;0.00;17.60;99.90;;;;;;4979248;28;10101;-66
2022/05/14 06:04:33;;;;;;;;;1.00;1.00;17.70;99.90;;;;;;4996554;28;10149;-65
2022/05/14 06:07:04;;;;;;;;;0.00;0.00;17.60;99.90;;;;;;4987761;28;10257;-65
2022/05/14 06:09:35;;;;;;;;;0.50;0.50;17.60;99.90;;;;;;4988573;28;10545;-64
2022/05/14 06:12:06;;;;;;;;;0.25;0.25;17.60;99.90;;;;;;4968022;28;10414;-64
2022/05/14 06:14:39;;;;;;;;;0.75;0.75;17.60;99.90;;;;;;4992859;28;10482;-63
2022/05/14 06:17:10;;;;;;;;;0.00;0.00;17.60;99.90;;;;;;4978107;28;10335;-63
2022/05/14 06:19:43;;;;;;;;;1.00;1.00;17.50;99.90;;;;;;4975798;28;10269;-62
2022/05/14 06:22:14;;;;;;;;;0.75;0.75;17.50;99.90;;;;;;4976650;28;10417;-64
2022/05/14 06:24:46;;;;;;;;;1.25;1.25;17.50;99.90;;;;;;4975821;28;11593;-64
2022/05/14 06:27:20;;;;;;;;;1.00;1.00;17.60;99.90;;;;;;4962666;28;10466;-64
2022/05/14 06:29:50;;;;;;;;;1.00;1.00;17.50;99.90;;;;;;4977713;28;10229;-63
2022/05/14 06:32:21;;;;;;;;;0.75;0.75;17.50;99.90;;;;;;4991032;28;10411;-64
2022/05/14 06:34:53;;;;;;;;;0.75;0.75;17.50;99.90;;;;;;4978107;28;10598;-63
2022/05/14 06:37:25;;;;;;;;;2.25;1.75;17.50;99.90;;;;;;4974002;28;10519;-63
2022/05/14 06:39:57;;;;;;;;;2.25;2.25;17.50;99.90;;;;;;4978544;28;10477;-63
2022/05/14 06:42:27;;;;;;;;;1.00;1.00;17.40;99.90;;;;;;4974139;28;11570;-63
2022/05/14 06:45:00;;;;;;;;;1.00;1.00;17.50;99.90;;;;;;4974803;28;10561;-62
2022/05/14 06:47:31;;;;;;;;;0.75;0.75;17.40;99.90;;;;;;4972041;28;10758;-63
2022/05/14 06:50:02;;;;;;;;;1.00;1.00;17.40;99.90;;;;;;4972194;28;11468;-63
2022/05/14 06:52:35;;;;;;;;;1.50;1.50;17.40;99.90;;;;;;4967555;28;10610;-63
2022/05/14 06:55:12;;;;;;;;;3.00;1.75;17.40;99.90;;;;;;4982268;28;10977;-63
2022/05/14 06:57:47;;;;;;;;;2.75;2.75;17.30;99.90;;;;;;4956796;28;10994;-64
2022/05/14 07:00:25;;;;;;;;;3.25;3.25;17.30;99.90;;;;;;4975230;28;11090;-63
2022/05/14 07:06:37;;;;;;;;;1.50;1.50;17.30;99.90;;;;;;4988473;28;10686;-63
2022/05/14 07:08:38;;;;;;;;;5.25;5.25;17.30;99.90;;;;;;4981361;28;10677;-64
2022/05/14 07:11:10;;;;;;;;;6.00;6.00;17.30;99.90;;;;;;4967743;28;10943;-64
2022/05/14 07:13:42;;;;;;;;;7.25;7.25;17.30;99.90;;;;;;4977864;28;10924;-63
2022/05/14 07:16:17;;;;;;;;;8.75;8.75;17.30;99.90;;;;;;4993983;28;10843;-62
2022/05/14 07:18:48;;;;;;;;;10.00;10.00;17.20;99.90;;;;;;4972335;28;10959;-63
2022/05/14 07:21:18;;;;;;;;;12.00;12.00;17.30;99.90;;;;;;4992419;28;10967;-63
2022/05/14 07:23:53;;;;;;;;;15.50;15.50;17.20;99.90;;;;;;4981996;28;10981;-64
2022/05/14 07:26:23;;;;;;;;;15.25;15.25;17.20;99.90;;;;;;4993654;28;11140;-66
2022/05/14 07:28:54;;;;;;;;;16.25;16.25;17.20;99.90;;;;;;4997023;28;11287;-65
2022/05/14 07:31:25;;;;;;;;;17.75;16.50;17.20;99.90;;;;;;4991808;28;11766;-63
2022/05/14 07:34:00;;;;;;;;;19.25;17.50;17.20;99.90;;;;;;4993800;28;11096;-63
2022/05/14 07:36:36;;;;;;;;;19.00;19.00;17.20;99.90;;;;;;4982319;28;11264;-63
2022/05/14 07:39:08;;;;;;;;;17.75;17.75;17.20;99.90;;;;;;4998509;28;12009;-63
2022/05/14 07:41:43;;;;;;;;;19.00;19.00;17.10;99.90;;;;;;5001249;28;11281;-63
2022/05/14 07:44:19;;;;;;;;;19.50;19.50;17.10;99.90;;;;;;4991746;28;11337;-62
2022/05/14 07:46:50;;;;;;;;;17.50;17.50;17.10;99.90;;;;;;4975448;28;11286;-62
2022/05/14 07:49:22;;;;;;;;;19.00;19.00;17.10;99.90;;;;;;4997098;28;11493;-64
2022/05/14 07:51:56;;;;;;;;;13.75;13.75;17.00;99.90;;;;;;4995209;28;11540;-63
2022/05/14 07:54:29;;;;;;;;;13.25;13.25;17.00;99.90;;;;;;4995599;28;11392;-64
2022/05/14 07:57:02;;;;;;;;;13.75;13.75;17.00;99.90;;;;;;4996771;28;11192;-63
2022/05/14 07:59:35;;;;;;;;;15.50;15.50;17.00;99.90;;;;;;4997057;28;11134;-64
2022/05/14 08:02:20;;;;;;;;;15.50;15.50;17.00;99.90;;;;;;4994248;28;12237;-61
2022/05/14 08:04:54;;;;;;;;;11.00;11.00;17.00;99.90;;;;;;4975802;28;11234;-63
2022/05/14 08:07:26;;;;;;;;;9.50;9.50;16.90;99.90;;;;;;4999109;28;11112;-63
2022/05/14 08:10:00;;;;;;;;;7.75;7.75;16.90;99.90;;;;;;4997213;28;11165;-62
2022/05/14 08:12:42;;;;;;;;;7.50;7.50;16.90;99.90;;;;;;4994151;28;11448;-62
2022/05/14 08:15:16;;;;;;;;;4.50;4.50;16.90;99.90;;;;;;4990657;28;11447;-62
2022/05/14 08:17:51;;;;;;;;;3.25;3.25;16.90;99.90;;;;;;4979636;28;10894;-62
2022/05/14 08:20:24;;;;;;;;;3.75;3.75;16.90;99.90;;;;;;4957235;28;11223;-63
2022/05/14 08:25:55;;;;;;;;;2.75;2.75;16.90;99.90;;;;;;4983851;28;11299;-63
2022/05/14 08:28:28;;;;;;;;;4.00;4.00;16.90;99.90;;;;;;4994351;28;11004;-63
2022/05/14 08:31:03;;;;;;;;;2.50;2.50;16.80;99.90;;;;;;4983508;28;11115;-63
2022/05/14 08:33:33;;;;;;;;;4.25;3.00;16.80;99.90;;;;;;4992277;28;11058;-63
2022/05/14 08:36:03;;;;;;;;;3.50;3.50;16.80;99.90;;;;;;4991517;28;11155;-63
2022/05/14 08:38:36;;;;;;;;;6.00;4.75;16.90;99.90;;;;;;4981508;28;11216;-63
2022/05/14 08:41:05;;;;;;;;;5.75;5.75;16.80;99.90;;;;;;4994157;28;11531;-64
2022/05/14 08:43:49;;;;;;;;;6.00;4.50;16.80;99.90;;;;;;4970100;28;12087;-64
2022/05/14 08:46:26;;;;;;;;;2.25;2.25;16.80;99.90;;;;;;4998917;28;11529;-63
2022/05/14 08:49:10;;;;;;;;;1.00;1.00;16.80;99.90;;;;;;4984258;28;11452;-62
2022/05/14 08:51:46;;;;;;;;;0.00;0.00;16.80;99.90;;;;;;4986780;28;11035;-64
2022/05/14 08:54:19;;;;;;;;;1.00;1.00;16.70;99.90;;;;;;4995701;28;10754;-63
2022/05/14 08:56:57;;;;;;;;;1.75;1.75;16.70;99.90;;;;;;4999825;28;10615;-63
2022/05/14 08:59:42;;;;;;;;;0.00;0.00;16.70;99.90;;;;;;4992193;28;11181;-63
2022/05/14 09:02:26;;;;;;;;;0.75;0.75;16.70;99.90;;;;;;4996292;28;11028;-63
2022/05/14 09:05:00;;;;;;;;;0.25;0.25;16.70;99.90;;;;;;4976230;28;10263;-63
2022/05/14 09:07:33;;;;;;;;;2.50;1.50;16.70;99.90;;;;;;4985241;28;10212;-63
2022/05/14 09:10:19;;;;;;;;;3.00;1.75;16.70;99.90;;;;;;4998018;28;10340;-63
2022/05/14 09:13:10;;;;;;;;;1.00;1.00;16.60;99.90;;;;;;4998988;28;11305;-64
2022/05/14 09:15:51;;;;;;;;;2.75;1.00;16.60;99.90;;;;;;4997665;28;10572;-63
2022/05/14 09:18:33;;;;;;;;;1.50;1.50;16.60;99.90;;;;;;4995119;28;10456;-64
2022/05/14 09:21:21;;;;;;;;;1.00;1.00;16.60;99.90;;;;;;4992006;28;10421;-63
2022/05/14 09:24:05;;;;;;;;;0.50;0.50;16.60;99.90;;;;;;4999495;28;10403;-66
2022/05/14 09:26:40;;;;;;;;;1.50;1.50;16.60;99.90;;;;;;4989556;28;10246;-64
2022/05/14 09:29:29;;;;;;;;;1.00;1.00;16.50;99.90;;;;;;4996499;28;10468;-64
2022/05/14 09:32:27;;;;;;;;;1.00;1.00;16.60;99.90;;;;;;4995082;28;10284;-64
2022/05/14 09:35:12;;;;;;;;;1.00;1.00;16.50;99.90;;;;;;4996141;28;11162;-63
2022/05/14 09:37:52;;;;;;;;;1.00;1.00;16.50;99.90;;;;;;4994995;28;10385;-65
2022/05/14 09:40:28;;;;;;;;;1.25;1.25;16.50;99.90;;;;;;4991304;28;10525;-65
2022/05/14 09:43:31;;;;;;;;;1.00;1.00;16.50;99.90;;;;;;4997353;28;10394;-64
2022/05/14 09:46:07;;;;;;;;;2.00;2.00;16.50;99.90;;;;;;4983702;28;10405;-64
2022/05/14 09:48:48;;;;;;;;;0.50;0.25;16.50;99.90;;;;;;4978820;28;10565;-64
2022/05/14 09:51:51;;;;;;;;;1.00;1.00;16.50;99.90;;;;;;4995363;28;10483;-63
2022/05/14 09:54:31;;;;;;;;;1.00;1.00;16.50;99.90;;;;;;4991811;28;10475;-64
2022/05/14 09:57:21;;;;;;;;;2.75;1.00;16.50;99.90;;;;;;4979858;28;10399;-64
2022/05/14 10:00:16;;;;;;;;;1.00;1.00;16.50;99.90;;;;;;4982026;28;10580;-64
2022/05/14 10:03:23;;;;;;;;;1.25;1.25;16.40;99.90;;;;;;4991520;28;10607;-62
2022/05/14 10:06:15;;;;;;;;;1.25;1.25;16.40;99.90;;;;;;4995146;28;10540;-63
2022/05/14 10:09:17;;;;;;;;;2.00;2.00;16.40;99.90;;;;;;4998585;28;10756;-63
2022/05/14 10:11:55;;;;;;;;;1.00;1.00;16.40;99.90;;;;;;4962531;28;10565;-63
2022/05/14 10:14:39;;;;;;;;;0.00;0.00;16.40;99.90;;;;;;4994095;28;10538;-63
2022/05/14 10:17:19;;;;;;;;;1.50;1.50;16.30;99.90;;;;;;4991228;28;10267;-63
2022/05/14 10:20:12;;;;;;;;;1.00;1.00;16.30;99.90;;;;;;4987318;28;10460;-63
2022/05/14 10:26:49;;;;;;;;;1.25;1.25;16.30;99.90;;;;;;4993873;28;11260;-64
2022/05/14 10:29:30;;;;;;;;;1.00;1.00;16.30;99.90;;;;;;4990978;28;10460;-64
2022/05/14 10:32:04;;;;;;;;;1.00;1.00;16.30;99.90;;;;;;4995635;28;10919;-64
2022/05/14 10:35:17;;;;;;;;;1.25;1.25;16.20;99.90;;;;;;4995591;28;10683;-63
2022/05/14 10:38:27;;;;;;;;;1.00;1.00;16.20;99.90;;;;;;4965140;28;10482;-64
2022/05/14 10:41:10;;;;;;;;;1.00;1.00;16.20;99.90;;;;;;4961743;28;11193;-64
2022/05/14 10:43:51;;;;;;;;;1.00;1.00;16.20;99.90;;;;;;4978455;28;10781;-64
2022/05/14 10:46:24;;;;;;;;;1.25;1.25;16.20;99.90;;;;;;4971693;28;10906;-64
2022/05/14 10:49:27;;;;;;;;;1.00;1.00;16.20;99.90;;;;;;4994270;28;10875;-63
2022/05/14 10:51:58;;;;;;;;;1.00;1.00;16.10;99.90;;;;;;4954037;28;10639;-64
2022/05/14 10:54:33;;;;;;;;;0.00;0.00;16.10;99.90;;;;;;4993945;28;10539;-63
2022/05/14 10:57:32;;;;;;;;;1.50;1.50;16.10;99.90;;;;;;4994557;28;10769;-64
2022/05/14 11:00:43;;;;;;;;;1.75;1.75;16.00;99.90;;;;;;4996431;28;11014;-64
2022/05/14 11:03:31;;;;;;;;;2.00;2.00;16.10;99.90;;;;;;4993121;28;10722;-63
2022/05/14 11:06:02;;;;;;;;;1.75;1.75;16.10;99.90;;;;;;4965910;28;11097;-63
2022/05/14 11:08:42;;;;;;;;;2.25;2.25;16.00;99.90;;;;;;4997912;28;11020;-63
2022/05/14 11:11:26;;;;;;;;;3.25;3.25;16.10;99.90;;;;;;4989413;28;10876;-63
2022/05/14 11:14:08;;;;;;;;;2.00;2.00;16.00;99.90;;;;;;4994366;28;10894;-63
2022/05/14 11:16:59;;;;;;;;;2.00;2.00;16.00;99.90;;;;;;4989105;28;10920;-63
2022/05/14 11:19:34;;;;;;;;;3.50;3.50;16.00;99.90;;;;;;4992556;28;10795;-64
2022/05/14 11:22:20;;;;;;;;;3.00;3.00;16.00;99.90;;;;;;4997143;28;10906;-64
2022/05/14 11:24:53;;;;;;;;;3.50;3.50;15.90;99.90;;;;;;4986136;28;10882;-64
2022/05/14 11:27:37;;;;;;;;;4.00;4.00;15.90;99.90;;;;;;4994020;28;11061;-64
2022/05/14 11:30:13;;;;;;;;;4.00;4.00;15.90;99.90;;;;;;4995129;28;10996;-63
2022/05/14 11:32:49;;;;;;;;;3.25;3.25;15.90;99.90;;;;;;4998581;28;10793;-64
2022/05/14 11:35:20;;;;;;;;;3.00;3.00;15.90;99.90;;;;;;4991964;28;11546;-63
2022/05/14 11:37:52;;;;;;;;;2.75;2.75;15.90;99.90;;;;;;4976397;28;10917;-63
2022/05/14 11:40:29;;;;;;;;;4.00;4.00;15.90;99.90;;;;;;4980701;28;11710;-62
2022/05/14 11:43:11;;;;;;;;;3.00;3.00;15.90;99.90;;;;;;4982714;28;11235;-63
2022/05/14 11:45:55;;;;;;;;;2.25;2.25;15.80;99.90;;;;;;4999962;28;10915;-62
2022/05/14 11:48:41;;;;;;;;;2.00;2.00;15.80;99.90;;;;;;4973385;28;10786;-63
2022/05/14 11:52:03;;;;;;;;;2.00;2.00;15.80;99.90;;;;;;4978040;28;10836;-64
2022/05/14 11:54:59;;;;;;;;;4.00;4.00;15.80;99.90;;;;;;4984038;28;11004;-63
2022/05/14 11:57:55;;;;;;;;;4.00;4.00;15.80;99.90;;;;;;4991810;28;11706;-63
2022/05/14 12:00:32;;;;;;;;;4.00;4.00;15.80;99.90;;;;;;4982731;28;10927;-64
2022/05/14 12:03:30;;;;;;;;;1.00;1.00;15.70;99.90;;;;;;4981858;28;11081;-64
2022/05/14 12:06:47;;;;;;;;;4.00;4.00;15.70;99.90;;;;;;4996081;28;11044;-63
2022/05/14 12:09:39;;;;;;;;;3.50;3.50;15.70;99.90;;;;;;5008969;28;11037;-64
2022/05/14 12:12:13;;;;;;;;;3.00;3.00;15.60;99.90;;;;;;4989678;28;11093;-64
2022/05/14 12:14:44;;;;;;;;;2.00;2.00;15.60;99.90;;;;;;4997797;28;11807;-63
2022/05/14 12:17:23;;;;;;;;;3.00;3.00;15.60;99.90;;;;;;4995139;28;11152;-65
2022/05/14 12:19:58;;;;;;;;;3.00;3.00;15.60;99.90;;;;;;4998933;28;11202;-61
2022/05/14 12:22:32;;;;;;;;;3.00;3.00;15.60;99.90;;;;;;4981180;28;11167;-63
2022/05/14 12:25:09;;;;;;;;;4.00;4.00;15.60;99.90;;;;;;4993129;28;11444;-63
2022/05/14 12:27:49;;;;;;;;;4.00;4.00;15.50;99.90;;;;;;4995197;28;11222;-64
2022/05/14 12:33:20;;;;;;;;;5.50;5.50;15.50;99.90;;;;;;4993502;28;11084;-64
2022/05/14 12:36:05;;;;;;;;;3.50;3.50;15.50;99.90;;;;;;4988165;28;11612;-64
2022/05/14 12:38:42;;;;;;;;;2.25;2.25;15.50;99.90;;;;;;4989675;28;11127;-64
2022/05/14 12:41:31;;;;;;;;;3.75;3.75;15.50;99.90;;;;;;4978797;28;11455;-64
2022/05/14 12:44:34;;;;;;;;;3.25;3.25;15.50;99.90;;;;;;4988425;28;11000;-64
2022/05/14 12:47:05;;;;;;;;;3.00;3.00;15.50;99.90;;;;;;4987393;28;11290;-64
2022/05/14 12:49:45;;;;;;;;;3.00;3.00;15.40;99.90;;;;;;4978241;28;11146;-64
2022/05/14 12:52:21;;;;;;;;;2.00;2.00;15.40;99.90;;;;;;4989324;28;11131;-64
2022/05/14 12:54:57;;;;;;;;;2.75;2.75;15.40;99.90;;;;;;5001555;28;11978;-64
2022/05/14 12:57:29;;;;;;;;;4.00;4.00;15.30;99.90;;;;;;4993751;28;10942;-63
2022/05/14 13:00:02;;;;;;;;;5.25;5.25;15.30;99.90;;;;;;4999210;28;11368;-62
2022/05/14 13:02:46;;;;;;;;;4.00;4.00;15.30;99.90;;;;;;4999131;28;11109;-63
2022/05/14 13:05:32;;;;;;;;;2.50;2.50;15.30;99.90;;;;;;4994320;28;11027;-63
2022/05/14 13:08:19;;;;;;;;;3.00;3.00;15.30;99.90;;;;;;4996802;28;12098;-63
2022/05/14 13:10:58;;;;;;;;;3.75;3.75;15.20;99.90;;;;;;4996884;28;11713;-63
2022/05/14 13:13:53;;;;;;;;;3.75;3.75;15.20;99.90;;;;;;4993524;28;11173;-63
2022/05/14 13:16:31;;;;;;;;;4.00;4.00;15.30;99.90;;;;;;4977770;28;11074;-63
2022/05/14 13:19:29;;;;;;;;;4.00;4.00;15.20;99.90;;;;;;4978603;28;11125;-64
2022/05/14 13:22:00;;;;;;;;;3.00;3.00;15.20;99.90;;;;;;4984526;28;10987;-63
2022/05/14 13:24:35;;;;;;;;;3.25;3.25;15.20;99.90;;;;;;4994074;28;11243;-64
2022/05/14 13:27:11;;;;;;;;;3.50;3.50;15.20;99.90;;;;;;4992391;28;11131;-63
2022/05/14 13:29:43;;;;;;;;;2.75;2.75;15.20;99.90;;;;;;4982090;28;11418;-64
2022/05/14 13:32:33;;;;;;;;;3.00;3.00;15.20;99.90;;;;;;4979215;28;11161;-64
2022/05/14 13:38:38;;;;;;;;;3.00;3.00;15.10;99.90;;;;;;4996295;28;11093;-63
2022/05/14 13:41:27;;;;;;;;;3.00;3.00;15.20;99.90;;;;;;4980948;28;11310;-64
2022/05/14 13:44:04;;;;;;;;;2.00;2.00;15.10;99.90;;;;;;4992161;28;11203;-62
2022/05/14 13:46:43;;;;;;;;;2.00;2.00;15.10;99.90;;;;;;4995459;28;11259;-63
2022/05/14 13:49:36;;;;;;;;;3.50;3.50;15.10;99.90;;;;;;4998672;28;11681;-63
2022/05/14 13:52:06;;;;;;;;;2.00;2.00;15.10;99.90;;;;;;4993273;28;11169;-64
2022/05/14 13:54:40;;;;;;;;;2.00;2.00;15.10;99.90;;;;;;4995528;28;12279;-63
2022/05/14 13:57:12;;;;;;;;;3.00;3.00;15.10;99.90;;;;;;4991306;28;11137;-63
2022/05/14 13:59:43;;;;;;;;;3.50;3.50;15.10;99.90;;;;;;4981455;28;11105;-63
2022/05/14 14:02:29;;;;;;;;;3.00;3.00;15.10;99.90;;;;;;4994292;28;11145;-63
2022/05/14 14:05:03;;;;;;;;;3.00;3.00;15.20;99.90;;;;;;4995396;28;11059;-63